Caribbean Princess — ZCDG8 — position and weather

sailwx.info

Track history (hours):
 
Tides and Currents Weather Stations Pressure Air Temp Water Temp Dewpoint Dewpoint Depression Visibility Wind Speed Wind Dir Waves Ship Positions

Caribbean Princess

Operator: Princess Cruises

Last reported at 2016-Aug-28 16:31 UTC. Time now 2016-Aug-28 16:45 UTC.
Position N 53°25' W 003°00'.

Type: Passenger vessel. MMSI: 310423000.

Date/timePositionNaut miles runAvg speedWind from/ knotsBaromVisibWave heightAir tempDewpointWater temp
2016-Aug-28 16:31N 53°25' W 003°00'0 0.0
2016-Aug-28 15:28N 53°25' W 003°00'0 0.0
2016-Aug-28 14:31N 53°25' W 003°00'0 0.0
2016-Aug-28 13:31N 53°25' W 003°00'0 0.0
2016-Aug-28 12:31N 53°25' W 003°00'0 0.0
2016-Aug-28 11:31N 53°25' W 003°00'0 0.0
2016-Aug-28 10:31N 53°25' W 003°00'0 0.0
2016-Aug-28 09:31N 53°25' W 003°00'0 0.0
2016-Aug-28 08:31N 53°25' W 003°00'0 0.0
2016-Aug-28 07:31N 53°25' W 003°00'0 0.0
2016-Aug-28 06:31N 53°25' W 003°00'4 4.3
2016-Aug-28 05:33N 53°28' W 003°03'9 9.4
2016-Aug-28 04:33N 53°31' W 003°18'1212.1
2016-Aug-28 03:33N 53°31' W 003°39'1413.9
2016-Aug-28 02:33N 53°31' W 004°02'110 4.0
2016-Aug-26 23:05N 52°07' W 006°01'2516.0
2016-Aug-26 21:33N 51°58' W 006°38'1717.2
2016-Aug-26 20:33N 51°54' W 007°05'1817.5
2016-Aug-26 19:33N 51°49' W 007°32'1817.7
2016-Aug-26 18:33N 51°45' W 007°60'1111.4
2016-Aug-26 17:34N 51°50' W 008°16'2 1.7
2016-Aug-26 16:33N 51°51' W 008°18'0 0.0
2016-Aug-26 15:33N 51°51' W 008°18'0 0.0
2016-Aug-26 14:33N 51°51' W 008°18'0 0.0
2016-Aug-26 13:33N 51°51' W 008°18'0 0.0
2016-Aug-26 12:33N 51°51' W 008°18'0 0.0
2016-Aug-26 11:33N 51°51' W 008°18'0 0.0
2016-Aug-26 10:31N 51°51' W 008°18'0 0.0
2016-Aug-26 09:31N 51°51' W 008°18'0 0.0
2016-Aug-26 08:31N 51°51' W 008°18'0 0.0
2016-Aug-26 07:31N 51°51' W 008°18'0 0.1
2016-Aug-26 06:33N 51°51' W 008°18'18 8.9
2016-Aug-26 04:34N 51°36' W 008°03'1717.4
2016-Aug-26 03:34N 51°24' W 007°41'7518.6
2016-Aug-25 23:33N 50°33' W 006°15'2019.8
2016-Aug-25 22:34N 50°19' W 005°54'2120.6
2016-Aug-25 21:34N 49°58' W 005°54'2019.0
2016-Aug-25 20:32N 49°50' W 005°26'2020.4
2016-Aug-25 19:32N 49°45' W 004°56'2121.3
2016-Aug-25 18:33N 49°40' W 004°24'2221.6
2016-Aug-25 17:34N 49°35' W 003°52'2221.5
2016-Aug-25 16:34N 49°30' W 003°20'2121.3
2016-Aug-25 15:33N 49°24' W 002°48'12 9.5
2016-Aug-25 14:17N 49°28' W 002°30'0 0.0
2016-Aug-25 10:26N 49°28' W 002°30'0 0.0
2016-Aug-25 09:15N 49°28' W 002°30'0 0.0
2016-Aug-25 08:24N 49°28' W 002°30'0 0.0
2016-Aug-25 06:33N 49°28' W 002°30'10 4.8
2016-Aug-25 04:33N 49°19' W 002°37'1312.5
2016-Aug-25 03:30N 49°18' W 002°57'1011.0
2016-Aug-25 02:34N 49°27' W 003°05'1513.4
2016-Aug-25 01:27N 49°42' W 003°07'1415.3
2016-Aug-25 00:33N 49°56' W 003°07'1616.0
2016-Aug-24 23:33N 50°00' W 002°43'1615.5
2016-Aug-24 22:32N 50°05' W 002°19'1616.4
2016-Aug-24 21:33N 50°13' W 001°57'1917.9
2016-Aug-24 20:30N 50°22' W 001°31'1818.8
2016-Aug-24 19:33N 50°31' W 001°07'1313.1
2016-Aug-24 18:33N 50°43' W 001°02'1212.1
2016-Aug-24 17:33N 50°49' W 001°18'5 5.4
2016-Aug-24 16:33N 50°53' W 001°24'0 0.0
2016-Aug-24 15:30N 50°53' W 001°24'0 0.0
2016-Aug-24 14:30N 50°53' W 001°24'0 0.0
2016-Aug-24 13:24N 50°53' W 001°24'0 0.0
2016-Aug-24 12:33N 50°53' W 001°24'0 0.0
2016-Aug-24 11:33N 50°53' W 001°24'0 0.0
2016-Aug-24 10:33N 50°53' W 001°24'0 0.0
2016-Aug-24 09:30N 50°53' W 001°24'0 0.0
2016-Aug-24 08:33N 50°53' W 001°24'0 0.0
2016-Aug-24 07:33N 50°53' W 001°24'0 0.0
2016-Aug-24 06:33N 50°53' W 001°24'0 0.0
2016-Aug-24 04:29N 50°53' W 001°24'1 0.7
2016-Aug-24 03:33N 50°53' W 001°24'8 7.7
2016-Aug-24 02:33N 50°46' W 001°17'1313.3
2016-Aug-24 01:33N 50°41' W 000°58'1111.1
2016-Aug-24 00:33N 50°29' W 000°57'1312.8
2016-Aug-23 23:31N 50°17' W 000°51'1312.9
2016-Aug-23 22:32N 50°05' W 000°46'1111.8
2016-Aug-23 21:33N 49°54' W 000°39'1211.7
2016-Aug-23 20:33N 49°44' W 000°30'1212.0
2016-Aug-23 19:33N 49°35' W 000°18'1312.9
2016-Aug-23 18:34N 49°30' E 000°01'4 3.9
2016-Aug-23 17:33N 49°29' E 000°06'0 0.0
2016-Aug-23 16:33N 49°29' E 000°06'0 0.0
2016-Aug-23 15:33N 49°29' E 000°06'0 0.0
2016-Aug-23 14:33N 49°29' E 000°06'0 0.0
2016-Aug-23 13:33N 49°29' E 000°06'0 0.0
2016-Aug-23 12:33N 49°29' E 000°06'0 0.0
2016-Aug-23 11:33N 49°29' E 000°06'0 0.0
2016-Aug-23 10:33N 49°29' E 000°06'0 0.0
2016-Aug-23 09:33N 49°29' E 000°06'0 0.0
2016-Aug-23 08:33N 49°29' E 000°06'0 0.0
2016-Aug-23 07:33N 49°29' E 000°06'0 0.0
2016-Aug-23 06:33N 49°29' E 000°06'0 0.0
2016-Aug-23 05:33N 49°29' E 000°06'0 0.4
2016-Aug-23 04:33N 49°29' E 000°07'1010.0
2016-Aug-23 03:33N 49°32' W 000°08'10 9.8
2016-Aug-23 02:33N 49°36' W 000°21'1413.6
2016-Aug-23 01:33N 49°50' W 000°22'1616.1
2016-Aug-23 00:33N 50°04' W 000°10'1313.3
2016-Aug-22 23:33N 50°17' W 000°07'1211.5
2016-Aug-22 22:33N 50°28' W 000°01'1313.0
2016-Aug-22 21:33N 50°31' E 000°19'1616.1
2016-Aug-22 20:34N 50°38' E 000°42'1918.8
2016-Aug-22 19:33N 50°49' E 001°06'1818.0
2016-Aug-22 18:33N 51°01' E 001°27'1616.0
2016-Aug-22 17:33N 51°13' E 001°44'1514.9
2016-Aug-22 16:34N 51°26' E 001°56'1514.6
2016-Aug-22 15:34N 51°38' E 002°09'1616.0
2016-Aug-22 14:33N 51°54' E 002°13'138244.3
2016-Aug-22 14:00N 54°12' E 002°12'117184.3 210 / 331021.210.8 1.019.016.519.0
2016-Aug-22 13:21N 52°15' E 002°18'1618.5
2016-Aug-22 12:30N 52°31' E 002°21'1919.3
2016-Aug-22 11:32N 52°49' E 002°26'2017.3
2016-Aug-22 10:22N 53°09' E 002°19'1619.3
2016-Aug-22 09:34N 53°20' E 002°00'9318.5
2016-Aug-22 04:32N 54°37' E 000°32'1718.1
2016-Aug-22 03:34N 54°50' E 000°12'3517.5
2016-Aug-22 01:32N 55°17' W 000°29'1616.8
2016-Aug-22 00:33N 55°29' W 000°48'5016.6
2016-Aug-21 21:34N 56°01' W 001°56'1716.9
2016-Aug-21 20:34N 56°07' W 002°24'1818.1
2016-Aug-21 19:34N 56°04' W 002°56'1514.7
2016-Aug-21 18:33N 56°00' W 003°22'0 0.1
2016-Aug-21 14:31N 56°00' W 003°23'0 0.0
2016-Aug-21 09:28N 56°00' W 003°22'0 0.0
2016-Aug-21 08:31N 56°00' W 003°22'0 0.0
2016-Aug-21 07:25N 56°00' W 003°22'0 0.0
2016-Aug-21 06:28N 56°00' W 003°22'3 3.0
2016-Aug-21 05:32N 56°01' W 003°18'1313.5
2016-Aug-21 04:33N 56°05' W 002°55'9 8.9
2016-Aug-21 03:33N 56°08' W 002°40'1313.3
2016-Aug-21 02:33N 56°17' W 002°22'1818.0
2016-Aug-21 01:34N 56°32' W 002°04'712.4
2016-Aug-21 01:00N 56°36' W 001°54'5422.2 320 / 30998.410.8 1.013.7 14.0
2016-Aug-20 22:33N 57°29' W 001°32'69 3.2
2016-Aug-20 01:07N 58°25' W 002°47'1118.9
2016-Aug-20 00:33N 58°35' W 002°54'1414.0
2016-Aug-19 23:33N 58°43' W 003°16'1514.9
2016-Aug-19 22:33N 58°43' W 003°45'1514.9
2016-Aug-19 21:33N 58°43' W 004°14'6215.4
2016-Aug-19 17:31N 58°05' W 005°49'13816.4
2016-Aug-19 09:06N 55°54' W 007°08'916.6
2016-Aug-19 08:33N 55°46' W 007°01'1515.1
2016-Aug-19 07:33N 55°35' W 006°42'1616.3
2016-Aug-19 06:33N 55°27' W 006°18'1716.7
2016-Aug-19 05:33N 55°17' W 005°53'1816.9
2016-Aug-19 04:29N 55°17' W 005°21'2116.0
2016-Aug-19 03:09N 55°33' W 004°56'1317.4
2016-Aug-19 02:24N 55°46' W 004°59'1315.4
2016-Aug-19 01:33N 55°58' W 004°51'3 2.8
2016-Aug-19 00:31N 55°57' W 004°46'0 0.0
2016-Aug-18 23:31N 55°57' W 004°46'0 0.0
2016-Aug-18 22:31N 55°57' W 004°46'0 0.0
2016-Aug-18 21:31N 55°57' W 004°46'0 0.0
2016-Aug-18 20:25N 55°57' W 004°46'0 0.0
2016-Aug-18 19:31N 55°57' W 004°46'0 0.0
2016-Aug-18 18:22N 55°57' W 004°46'0 0.0
2016-Aug-18 17:25N 55°57' W 004°46'  
Track history (hours):
 
Tides and Currents Weather Stations Pressure Air Temp Water Temp Dewpoint Dewpoint Depression Visibility Wind Speed Wind Dir Waves Ship Positions

Caribbean Princess

Operator: Princess Cruises

Last reported at 2016-Aug-28 16:31 UTC. Time now 2016-Aug-28 16:45 UTC.
Position N 53°25' W 003°00'.

Type: Passenger vessel. MMSI: 310423000.

Date/timePositionNaut miles runAvg speedWind from/ knotsBaromVisibWave heightAir tempDewpointWater temp
2016-Aug-28 16:31N 53°25' W 003°00'0 0.0
2016-Aug-28 15:28N 53°25' W 003°00'0 0.0
2016-Aug-28 14:31N 53°25' W 003°00'0 0.0
2016-Aug-28 13:31N 53°25' W 003°00'0 0.0
2016-Aug-28 12:31N 53°25' W 003°00'0 0.0
2016-Aug-28 11:31N 53°25' W 003°00'0 0.0
2016-Aug-28 10:31N 53°25' W 003°00'0 0.0
2016-Aug-28 09:31N 53°25' W 003°00'0 0.0
2016-Aug-28 08:31N 53°25' W 003°00'0 0.0
2016-Aug-28 07:31N 53°25' W 003°00'0 0.0
2016-Aug-28 06:31N 53°25' W 003°00'4 4.3
2016-Aug-28 05:33N 53°28' W 003°03'9 9.4
2016-Aug-28 04:33N 53°31' W 003°18'1212.1
2016-Aug-28 03:33N 53°31' W 003°39'1413.9
2016-Aug-28 02:33N 53°31' W 004°02'110 4.0
2016-Aug-26 23:05N 52°07' W 006°01'2516.0
2016-Aug-26 21:33N 51°58' W 006°38'1717.2
2016-Aug-26 20:33N 51°54' W 007°05'1817.5
2016-Aug-26 19:33N 51°49' W 007°32'1817.7
2016-Aug-26 18:33N 51°45' W 007°60'1111.4
2016-Aug-26 17:34N 51°50' W 008°16'2 1.7
2016-Aug-26 16:33N 51°51' W 008°18'0 0.0
2016-Aug-26 15:33N 51°51' W 008°18'0 0.0
2016-Aug-26 14:33N 51°51' W 008°18'0 0.0
2016-Aug-26 13:33N 51°51' W 008°18'0 0.0
2016-Aug-26 12:33N 51°51' W 008°18'0 0.0
2016-Aug-26 11:33N 51°51' W 008°18'0 0.0
2016-Aug-26 10:31N 51°51' W 008°18'0 0.0
2016-Aug-26 09:31N 51°51' W 008°18'0 0.0
2016-Aug-26 08:31N 51°51' W 008°18'0 0.0
2016-Aug-26 07:31N 51°51' W 008°18'0 0.1
2016-Aug-26 06:33N 51°51' W 008°18'18 8.9
2016-Aug-26 04:34N 51°36' W 008°03'1717.4
2016-Aug-26 03:34N 51°24' W 007°41'7518.6
2016-Aug-25 23:33N 50°33' W 006°15'2019.8
2016-Aug-25 22:34N 50°19' W 005°54'2120.6
2016-Aug-25 21:34N 49°58' W 005°54'2019.0
2016-Aug-25 20:32N 49°50' W 005°26'2020.4
2016-Aug-25 19:32N 49°45' W 004°56'2121.3
2016-Aug-25 18:33N 49°40' W 004°24'2221.6
2016-Aug-25 17:34N 49°35' W 003°52'2221.5
2016-Aug-25 16:34N 49°30' W 003°20'2121.3
2016-Aug-25 15:33N 49°24' W 002°48'12 9.5
2016-Aug-25 14:17N 49°28' W 002°30'0 0.0
2016-Aug-25 10:26N 49°28' W 002°30'0 0.0
2016-Aug-25 09:15N 49°28' W 002°30'0 0.0
2016-Aug-25 08:24N 49°28' W 002°30'0 0.0
2016-Aug-25 06:33N 49°28' W 002°30'10 4.8
2016-Aug-25 04:33N 49°19' W 002°37'1312.5
2016-Aug-25 03:30N 49°18' W 002°57'1011.0
2016-Aug-25 02:34N 49°27' W 003°05'1513.4
2016-Aug-25 01:27N 49°42' W 003°07'1415.3
2016-Aug-25 00:33N 49°56' W 003°07'1616.0
2016-Aug-24 23:33N 50°00' W 002°43'1615.5
2016-Aug-24 22:32N 50°05' W 002°19'1616.4
2016-Aug-24 21:33N 50°13' W 001°57'1917.9
2016-Aug-24 20:30N 50°22' W 001°31'1818.8
2016-Aug-24 19:33N 50°31' W 001°07'1313.1
2016-Aug-24 18:33N 50°43' W 001°02'1212.1
2016-Aug-24 17:33N 50°49' W 001°18'5 5.4
2016-Aug-24 16:33N 50°53' W 001°24'0 0.0
2016-Aug-24 15:30N 50°53' W 001°24'0 0.0
2016-Aug-24 14:30N 50°53' W 001°24'0 0.0
2016-Aug-24 13:24N 50°53' W 001°24'0 0.0
2016-Aug-24 12:33N 50°53' W 001°24'0 0.0
2016-Aug-24 11:33N 50°53' W 001°24'0 0.0
2016-Aug-24 10:33N 50°53' W 001°24'0 0.0
2016-Aug-24 09:30N 50°53' W 001°24'0 0.0
2016-Aug-24 08:33N 50°53' W 001°24'0 0.0
2016-Aug-24 07:33N 50°53' W 001°24'0 0.0
2016-Aug-24 06:33N 50°53' W 001°24'0 0.0
2016-Aug-24 04:29N 50°53' W 001°24'1 0.7
2016-Aug-24 03:33N 50°53' W 001°24'8 7.7
2016-Aug-24 02:33N 50°46' W 001°17'1313.3
2016-Aug-24 01:33N 50°41' W 000°58'1111.1
2016-Aug-24 00:33N 50°29' W 000°57'1312.8
2016-Aug-23 23:31N 50°17' W 000°51'1312.9
2016-Aug-23 22:32N 50°05' W 000°46'1111.8
2016-Aug-23 21:33N 49°54' W 000°39'1211.7
2016-Aug-23 20:33N 49°44' W 000°30'1212.0
2016-Aug-23 19:33N 49°35' W 000°18'1312.9
2016-Aug-23 18:34N 49°30' E 000°01'4 3.9
2016-Aug-23 17:33N 49°29' E 000°06'0 0.0
2016-Aug-23 16:33N 49°29' E 000°06'0 0.0
2016-Aug-23 15:33N 49°29' E 000°06'0 0.0
2016-Aug-23 14:33N 49°29' E 000°06'0 0.0
2016-Aug-23 13:33N 49°29' E 000°06'0 0.0
2016-Aug-23 12:33N 49°29' E 000°06'0 0.0
2016-Aug-23 11:33N 49°29' E 000°06'0 0.0
2016-Aug-23 10:33N 49°29' E 000°06'0 0.0
2016-Aug-23 09:33N 49°29' E 000°06'0 0.0
2016-Aug-23 08:33N 49°29' E 000°06'0 0.0
2016-Aug-23 07:33N 49°29' E 000°06'0 0.0
2016-Aug-23 06:33N 49°29' E 000°06'0 0.0
2016-Aug-23 05:33N 49°29' E 000°06'0 0.4
2016-Aug-23 04:33N 49°29' E 000°07'1010.0
2016-Aug-23 03:33N 49°32' W 000°08'10 9.8
2016-Aug-23 02:33N 49°36' W 000°21'1413.6
2016-Aug-23 01:33N 49°50' W 000°22'1616.1
2016-Aug-23 00:33N 50°04' W 000°10'1313.3
2016-Aug-22 23:33N 50°17' W 000°07'1211.5
2016-Aug-22 22:33N 50°28' W 000°01'1313.0
2016-Aug-22 21:33N 50°31' E 000°19'1616.1
2016-Aug-22 20:34N 50°38' E 000°42'1918.8
2016-Aug-22 19:33N 50°49' E 001°06'1818.0
2016-Aug-22 18:33N 51°01' E 001°27'1616.0
2016-Aug-22 17:33N 51°13' E 001°44'1514.9
2016-Aug-22 16:34N 51°26' E 001°56'1514.6
2016-Aug-22 15:34N 51°38' E 002°09'1616.0
2016-Aug-22 14:33N 51°54' E 002°13'138244.3
2016-Aug-22 14:00N 54°12' E 002°12'117184.3 210 / 331021.210.8 1.019.016.519.0
2016-Aug-22 13:21N 52°15' E 002°18'1618.5
2016-Aug-22 12:30N 52°31' E 002°21'1919.3
2016-Aug-22 11:32N 52°49' E 002°26'2017.3
2016-Aug-22 10:22N 53°09' E 002°19'1619.3
2016-Aug-22 09:34N 53°20' E 002°00'9318.5
2016-Aug-22 04:32N 54°37' E 000°32'1718.1
2016-Aug-22 03:34N 54°50' E 000°12'3517.5
2016-Aug-22 01:32N 55°17' W 000°29'1616.8
2016-Aug-22 00:33N 55°29' W 000°48'5016.6
2016-Aug-21 21:34N 56°01' W 001°56'1716.9
2016-Aug-21 20:34N 56°07' W 002°24'1818.1
2016-Aug-21 19:34N 56°04' W 002°56'1514.7
2016-Aug-21 18:33N 56°00' W 003°22'0 0.1
2016-Aug-21 14:31N 56°00' W 003°23'0 0.0
2016-Aug-21 09:28N 56°00' W 003°22'0 0.0
2016-Aug-21 08:31N 56°00' W 003°22'0 0.0
2016-Aug-21 07:25N 56°00' W 003°22'0 0.0
2016-Aug-21 06:28N 56°00' W 003°22'3 3.0
2016-Aug-21 05:32N 56°01' W 003°18'1313.5
2016-Aug-21 04:33N 56°05' W 002°55'9 8.9
2016-Aug-21 03:33N 56°08' W 002°40'1313.3
2016-Aug-21 02:33N 56°17' W 002°22'1818.0
2016-Aug-21 01:34N 56°32' W 002°04'712.4
2016-Aug-21 01:00N 56°36' W 001°54'5422.2 320 / 30998.410.8 1.013.7 14.0
2016-Aug-20 22:33N 57°29' W 001°32'69 3.2
2016-Aug-20 01:07N 58°25' W 002°47'1118.9
2016-Aug-20 00:33N 58°35' W 002°54'1414.0
2016-Aug-19 23:33N 58°43' W 003°16'1514.9
2016-Aug-19 22:33N 58°43' W 003°45'1514.9
2016-Aug-19 21:33N 58°43' W 004°14'6215.4
2016-Aug-19 17:31N 58°05' W 005°49'13816.4
2016-Aug-19 09:06N 55°54' W 007°08'916.6
2016-Aug-19 08:33N 55°46' W 007°01'1515.1
2016-Aug-19 07:33N 55°35' W 006°42'1616.3
2016-Aug-19 06:33N 55°27' W 006°18'1716.7
2016-Aug-19 05:33N 55°17' W 005°53'1816.9
2016-Aug-19 04:29N 55°17' W 005°21'2116.0
2016-Aug-19 03:09N 55°33' W 004°56'1317.4
2016-Aug-19 02:24N 55°46' W 004°59'1315.4
2016-Aug-19 01:33N 55°58' W 004°51'3 2.8
2016-Aug-19 00:31N 55°57' W 004°46'0 0.0
2016-Aug-18 23:31N 55°57' W 004°46'0 0.0
2016-Aug-18 22:31N 55°57' W 004°46'0 0.0
2016-Aug-18 21:31N 55°57' W 004°46'0 0.0
2016-Aug-18 20:25N 55°57' W 004°46'0 0.0
2016-Aug-18 19:31N 55°57' W 004°46'0 0.0
2016-Aug-18 18:22N 55°57' W 004°46'0 0.0
2016-Aug-18 17:25N 55°57' W 004°46'  

Dump ship's entire track history